Time;durP1;ratioP1;P1;durP2;ratioP2;P2;SDS_P1;SDS_P2;PMS_P1;PMS_P2;Temp;Humidity;BMP_temperature;BMP_pressure;BME280_temperature;BME280_humidity;BME280_pressure;Samples;Min_cycle;Max_cycle;Signal;HPM_P1;HPM_P2
2022/08/29 00:00:52;;;;;;;29.13;16.97;;;;;;;16.98;98.49;94254.00;4862439;29;20201;-95
2022/08/29 00:03:40;;;;;;;27.30;14.97;;;;;;;16.89;98.04;94246.47;4854723;29;20209;-95
2022/08/29 00:06:28;;;;;;;23.27;13.67;;;;;;;16.92;97.81;94250.84;4864148;29;20209;-94
2022/08/29 00:09:12;;;;;;;82.60;20.20;;;;;;;16.70;97.63;94253.25;4873057;29;20285;-96
2022/08/29 00:11:56;;;;;;;107.37;20.80;;;;;;;16.82;98.37;94253.16;4875387;29;20201;-95
2022/08/29 00:14:41;;;;;;;153.37;21.63;;;;;;;16.81;98.01;94248.84;4883803;29;20241;-95
2022/08/29 00:17:25;;;;;;;37.53;16.87;;;;;;;16.75;96.68;94257.75;4868270;29;20247;-94
2022/08/29 00:20:15;;;;;;;34.83;16.57;;;;;;;16.84;97.89;94256.84;4853806;29;20209;-93
2022/08/29 00:23:04;;;;;;;78.23;20.90;;;;;;;16.73;95.84;94254.81;4867400;29;20216;-95
2022/08/29 00:25:48;;;;;;;26.90;14.40;;;;;;;16.72;96.73;94255.47;4853510;29;20292;-96
2022/08/29 00:28:32;;;;;;;23.90;12.77;;;;;;;16.61;95.38;94259.09;4850131;29;20292;-94
2022/08/29 00:31:17;;;;;;;38.67;14.23;;;;;;;16.49;96.06;94251.38;4862565;29;20205;-94
2022/08/29 00:34:01;;;;;;;18.00;11.60;;;;;;;16.47;95.25;94254.13;4854807;29;20205;-95
2022/08/29 00:36:46;;;;;;;29.03;13.53;;;;;;;16.18;96.57;94251.06;4866597;29;20209;-94
2022/08/29 00:39:33;;;;;;;50.67;15.43;;;;;;;16.12;97.23;94247.91;4848775;29;20212;-93
2022/08/29 00:42:18;;;;;;;58.37;15.63;;;;;;;16.19;97.87;94255.38;4854380;29;20217;-95
2022/08/29 00:45:06;;;;;;;91.13;16.70;;;;;;;15.97;96.65;94242.81;4841153;29;20268;-95
2022/08/29 00:48:00;;;;;;;36.60;11.20;;;;;;;15.91;98.11;94251.69;4866750;29;20201;-93
2022/08/29 00:50:55;;;;;;;30.53;11.63;;;;;;;15.88;98.69;94238.06;4863382;29;20237;-93
2022/08/29 00:53:43;;;;;;;26.10;10.57;;;;;;;15.98;98.28;94249.94;4862846;29;20228;-93
2022/08/29 00:56:34;;;;;;;30.93;11.63;;;;;;;15.87;98.34;94250.72;4872696;29;20197;-93
2022/08/29 00:59:33;;;;;;;55.30;14.27;;;;;;;15.76;97.92;94233.19;4851523;29;20270;-91
2022/08/29 01:02:19;;;;;;;12.93;8.63;;;;;;;15.81;97.21;94242.63;4869367;29;20205;-93
2022/08/29 01:05:05;;;;;;;13.60;9.50;;;;;;;15.69;98.26;94225.72;4874703;29;20214;-92
2022/08/29 01:07:50;;;;;;;17.50;8.53;;;;;;;15.60;98.46;94242.84;4863556;29;20674;-93
2022/08/29 01:13:41;;;;;;;19.63;9.83;;;;;;;15.60;99.04;94243.56;4894820;29;20200;-94
2022/08/29 01:16:27;;;;;;;19.27;9.93;;;;;;;15.53;98.96;94247.41;4863772;29;20316;-93
2022/08/29 01:19:37;;;;;;;21.23;10.27;;;;;;;15.59;98.88;94244.91;4854316;29;20205;-93
2022/08/29 01:22:50;;;;;;;25.43;8.73;;;;;;;15.47;98.65;94243.44;4871247;29;20212;-92
2022/08/29 01:25:44;;;;;;;23.13;7.87;;;;;;;15.38;98.01;94242.22;4862771;29;20286;-92
2022/08/29 01:28:36;;;;;;;7.27;5.77;;;;;;;15.37;98.48;94243.59;4870974;29;20264;-92
2022/08/29 01:31:27;;;;;;;8.47;5.40;;;;;;;15.21;97.69;94246.19;4855541;29;20212;-93
2022/08/29 01:34:17;;;;;;;6.10;5.60;;;;;;;15.20;97.18;94229.88;4866755;29;20202;-92
2022/08/29 01:37:05;;;;;;;6.03;5.10;;;;;;;15.19;97.68;94248.16;4874568;29;20227;-92
2022/08/29 01:39:52;;;;;;;5.17;4.67;;;;;;;15.38;97.56;94239.41;4865903;29;20209;-92
2022/08/29 01:42:41;;;;;;;7.03;6.43;;;;;;;15.41;97.03;94235.38;4870489;29;20232;-92
2022/08/29 01:45:27;;;;;;;6.17;5.57;;;;;;;15.24;95.48;94221.66;4866582;29;20426;-93
2022/08/29 01:48:12;;;;;;;6.37;5.23;;;;;;;15.20;95.23;94222.16;4880065;29;20208;-92
2022/08/29 01:50:59;;;;;;;7.67;4.30;;;;;;;15.13;95.44;94233.69;4870904;29;20228;-91
2022/08/29 01:53:44;;;;;;;8.40;4.90;;;;;;;15.07;95.00;94213.56;4867099;29;20209;-91
2022/08/29 01:56:31;;;;;;;4.90;4.37;;;;;;;15.05;94.07;94233.22;4847323;29;20212;-92
2022/08/29 01:59:26;;;;;;;6.70;4.03;;;;;;;15.10;94.42;94234.94;4866501;29;20222;-93
2022/08/29 02:02:19;;;;;;;4.40;3.10;;;;;;;14.74;93.37;94228.56;4874239;29;20233;-93
2022/08/29 02:05:07;;;;;;;8.70;3.50;;;;;;;14.70;95.18;94233.22;4860379;29;20201;-93
2022/08/29 02:07:53;;;;;;;8.00;3.37;;;;;;;14.65;95.79;94208.94;4873015;29;20217;-91
2022/08/29 02:10:37;;;;;;;3.07;2.87;;;;;;;14.79;94.06;94230.28;4872354;29;20243;-91
2022/08/29 02:13:28;;;;;;;3.40;3.10;;;;;;;14.69;93.45;94215.56;4861327;29;20213;-90
2022/08/29 02:16:16;;;;;;;3.30;3.10;;;;;;;14.72;93.72;94213.59;4884219;29;20208;-91
2022/08/29 02:19:07;;;;;;;3.70;3.30;;;;;;;14.73;93.30;94218.63;4882344;29;20205;-92
2022/08/29 02:22:01;;;;;;;7.00;3.43;;;;;;;14.66;92.48;94199.88;4876409;29;20190;-92
2022/08/29 07:45:25;;;;;;;11.57;9.15;;;;;;;21.15;78.06;94324.25;740278;23;22440;-94
2022/08/29 07:48:09;;;;;;;12.20;10.05;;;;;;;21.25;77.31;94315.34;4872459;29;20375;-93
2022/08/29 07:50:53;;;;;;;12.57;8.93;;;;;;;21.89;75.46;94314.13;4865672;29;20224;-93
2022/08/29 07:53:38;;;;;;;10.38;8.38;;;;;;;22.33;71.63;94319.94;4873930;29;20619;-93
2022/08/29 07:56:37;;;;;;;10.27;8.35;;;;;;;22.23;72.18;94314.59;4881249;29;20200;-94
2022/08/29 07:59:23;;;;;;;9.02;8.23;;;;;;;22.78;70.96;94325.75;4875752;29;20236;-93
2022/08/29 08:02:07;;;;;;;8.40;7.28;;;;;;;22.59;69.25;94315.09;4866312;29;20305;-93
2022/08/29 08:04:53;;;;;;;9.80;7.00;;;;;;;22.17;71.57;94323.69;4853859;29;20804;-92
2022/08/29 08:07:37;;;;;;;8.50;6.60;;;;;;;22.24;72.87;94324.63;4864670;29;20223;-94
2022/08/29 08:10:23;;;;;;;9.10;7.00;;;;;;;22.67;71.77;94335.34;4865492;29;20294;-95
2022/08/29 08:13:08;;;;;;;8.55;7.40;;;;;;;23.29;67.13;94318.72;4898048;29;20219;-96
2022/08/29 08:15:54;;;;;;;8.35;7.53;;;;;;;21.92;70.67;94321.38;4901857;29;20215;-94
2022/08/29 08:18:40;;;;;;;10.57;6.78;;;;;;;22.70;69.49;94325.47;4880110;29;20225;-94
2022/08/29 08:21:25;;;;;;;7.60;6.75;;;;;;;22.46;70.74;94330.38;4875405;29;20242;-94
2022/08/29 08:24:11;;;;;;;10.43;7.78;;;;;;;22.61;69.58;94329.44;4867283;29;20215;-93
2022/08/29 08:26:55;;;;;;;9.60;8.50;;;;;;;22.94;68.10;94326.28;4864672;29;20216;-94
2022/08/29 08:29:39;;;;;;;10.95;6.97;;;;;;;23.42;68.14;94337.72;4849925;29;20213;-95
2022/08/29 08:32:24;;;;;;;9.50;8.32;;;;;;;23.96;65.42;94335.00;4865041;29;20209;-93
2022/08/29 08:35:10;;;;;;;9.75;7.10;;;;;;;23.59;67.85;94338.94;4849669;29;20205;-94
2022/08/29 08:37:55;;;;;;;10.07;6.28;;;;;;;23.05;67.50;94335.16;4861175;29;20240;-95
2022/08/29 08:41:05;;;;;;;6.95;6.32;;;;;;;23.66;62.99;94338.47;4844209;29;20198;-93
2022/08/29 08:43:56;;;;;;;7.35;6.65;;;;;;;23.54;65.51;94338.09;4844630;29;20289;-92
2022/08/29 08:46:43;;;;;;;11.02;7.18;;;;;;;23.60;61.47;94331.84;4845891;29;20265;-91
2022/08/29 08:49:37;;;;;;;8.38;7.57;;;;;;;23.10;65.75;94343.19;4843348;29;20201;-92
2022/08/29 08:52:45;;;;;;;14.85;6.63;;;;;;;22.98;65.27;94337.81;4844238;29;20628;-93
2022/08/29 08:55:56;;;;;;;6.63;5.97;;;;;;;23.31;63.28;94339.56;4852541;29;20209;-96
2022/08/29 08:58:54;;;;;;;10.70;7.97;;;;;;;23.60;62.18;94329.69;4846132;29;20206;-91
2022/08/29 09:01:42;;;;;;;8.40;7.28;;;;;;;23.52;64.29;94329.47;4855558;29;20212;-94
2022/08/29 09:04:36;;;;;;;8.38;6.53;;;;;;;23.17;64.26;94335.53;4859193;29;20220;-96
2022/08/29 09:07:48;;;;;;;7.47;6.13;;;;;;;22.58;65.17;94331.53;4861278;29;20268;-95
2022/08/29 09:10:32;;;;;;;7.78;6.72;;;;;;;23.02;65.47;94327.91;4848523;29;20259;-93
2022/08/29 09:13:55;;;;;;;8.82;7.05;;;;;;;23.48;65.83;94325.75;4855744;29;20204;-91
2022/08/29 09:16:45;;;;;;;11.40;6.97;;;;;;;24.07;61.89;94328.16;4832242;29;20209;-92
2022/08/29 09:41:02;;;;;;;6.82;5.60;;;;;;;23.63;62.57;94333.38;4858778;29;20215;-92
2022/08/29 09:43:48;;;;;;;10.77;5.63;;;;;;;24.06;61.27;94332.44;4860319;29;20209;-92
2022/08/29 09:46:32;;;;;;;7.80;4.93;;;;;;;25.15;58.80;94334.50;4859326;29;20205;-91
2022/08/29 09:49:17;;;;;;;5.82;5.00;;;;;;;24.02;59.91;94324.44;4859368;29;20205;-91
2022/08/29 09:52:29;;;;;;;8.10;5.25;;;;;;;24.73;58.69;94325.59;4858269;29;20273;-91
2022/08/29 09:55:18;;;;;;;9.65;5.68;;;;;;;24.97;56.84;94326.19;4861322;29;20209;-93
2022/08/29 09:58:31;;;;;;;7.13;5.43;;;;;;;24.08;55.62;94335.31;4852143;29;20248;-96
2022/08/29 10:01:19;;;;;;;8.48;5.22;;;;;;;24.61;55.74;94325.28;4855685;29;20201;-91
2022/08/29 10:04:06;;;;;;;8.85;5.15;;;;;;;25.63;54.90;94335.59;4855877;29;20291;-91
2022/08/29 10:06:50;;;;;;;11.63;5.50;;;;;;;25.77;54.59;94332.31;4859220;29;20696;-92
2022/08/29 10:09:34;;;;;;;7.25;4.80;;;;;;;25.27;54.14;94335.50;4846387;29;20217;-91
2022/08/29 10:12:28;;;;;;;6.55;3.85;;;;;;;25.49;55.71;94337.41;4832285;29;20220;-92
2022/08/29 10:15:20;;;;;;;4.60;4.18;;;;;;;24.21;56.19;94336.41;4857107;29;20294;-91
2022/08/29 10:18:22;;;;;;;6.72;4.22;;;;;;;26.06;55.24;94334.31;4834260;29;20230;-93
2022/08/29 10:21:12;;;;;;;8.07;4.95;;;;;;;25.91;53.84;94329.72;4857102;29;20228;-93
2022/08/29 10:24:25;;;;;;;5.18;4.72;;;;;;;26.71;52.55;94329.06;4860445;29;20220;-91
2022/08/29 10:27:52;;;;;;;5.22;4.53;;;;;;;27.13;52.21;94324.03;4850590;29;20201;-90
2022/08/29 10:30:59;;;;;;;6.40;4.85;;;;;;;27.03;49.62;94340.41;4831800;29;20259;-90
2022/08/29 10:33:53;;;;;;;6.55;4.25;;;;;;;25.73;56.55;94337.97;4834544;29;20284;-90
2022/08/29 10:36:39;;;;;;;4.90;4.47;;;;;;;25.81;53.71;94326.63;4862347;29;20217;-91
2022/08/29 10:40:02;;;;;;;4.82;4.25;;;;;;;26.36;54.63;94327.72;4838815;29;20217;-91
2022/08/29 10:42:52;;;;;;;7.25;4.93;;;;;;;25.11;54.32;94329.41;4867094;29;20235;-91
2022/08/29 10:46:06;;;;;;;4.63;4.22;;;;;;;26.28;51.35;94316.09;4846262;29;20224;-91
2022/08/29 10:49:05;;;;;;;4.32;3.92;;;;;;;25.50;53.49;94333.13;4860647;29;20200;-91
2022/08/29 10:52:10;;;;;;;4.68;4.28;;;;;;;25.06;55.51;94327.13;4853974;29;20260;-91
2022/08/29 10:55:10;;;;;;;8.75;4.97;;;;;;;26.80;49.47;94331.38;4861943;29;20220;-94
2022/08/29 10:58:16;;;;;;;4.65;3.75;;;;;;;27.09;51.59;94326.13;4872587;29;20213;-90
2022/08/29 11:01:08;;;;;;;4.47;4.07;;;;;;;26.51;50.96;94323.69;4877561;29;20193;-89
2022/08/29 11:04:06;;;;;;;7.57;4.03;;;;;;;26.15;52.35;94318.72;4861711;29;20648;-90
2022/08/29 11:07:02;;;;;;;6.18;4.22;;;;;;;26.58;51.95;94323.13;4844974;29;20748;-91
2022/08/29 11:10:14;;;;;;;6.57;4.10;;;;;;;28.06;47.75;94321.72;4840824;29;20315;-96
2022/08/29 11:13:05;;;;;;;8.25;4.05;;;;;;;28.00;48.57;94321.63;4867317;29;20273;-90
2022/08/29 11:16:11;;;;;;;5.03;3.75;;;;;;;27.52;49.25;94316.72;4862053;29;20311;-92
2022/08/29 11:18:59;;;;;;;5.63;4.05;;;;;;;27.78;47.09;94317.06;4870603;29;20236;-95
2022/08/29 11:21:53;;;;;;;5.53;4.28;;;;;;;27.52;48.53;94313.84;4859032;29;20227;-90
2022/08/29 11:24:39;;;;;;;6.80;4.03;;;;;;;26.92;49.23;94314.34;4861353;29;20248;-91
2022/08/29 11:27:29;;;;;;;5.20;4.13;;;;;;;26.79;47.59;94315.53;4851414;29;20212;-92
2022/08/29 11:30:42;;;;;;;4.32;3.70;;;;;;;27.06;47.11;94304.50;4866785;29;20243;-90
2022/08/29 11:33:45;;;;;;;5.10;4.35;;;;;;;27.31;48.45;94312.06;4846058;29;20713;-89
2022/08/29 11:36:39;;;;;;;4.75;4.05;;;;;;;26.57;49.46;94315.19;4863699;29;20208;-92
2022/08/29 11:39:31;;;;;;;6.05;4.25;;;;;;;26.10;51.52;94317.19;4861542;29;20277;-90
2022/08/29 11:42:21;;;;;;;8.52;4.60;;;;;;;26.79;51.31;94311.94;4863852;29;20205;-92
2022/08/29 11:45:09;;;;;;;4.63;4.18;;;;;;;26.86;49.16;94317.09;4849002;29;20227;-91
2022/08/29 11:48:17;;;;;;;11.85;4.50;;;;;;;26.96;50.98;94325.94;4858023;29;20297;-90
2022/08/29 11:51:37;;;;;;;5.07;3.80;;;;;;;25.92;51.19;94313.22;4867421;29;20572;-91
2022/08/29 11:54:28;;;;;;;6.90;4.13;;;;;;;25.79;50.57;94318.00;4846985;29;20219;-92
2022/08/29 11:57:12;;;;;;;6.63;4.25;;;;;;;25.91;50.30;94309.63;4860011;29;20373;-94
2022/08/29 12:00:00;;;;;;;7.68;4.85;;;;;;;25.73;50.81;94315.00;4860976;29;20271;-90
2022/08/29 12:02:44;;;;;;;4.03;3.63;;;;;;;26.22;48.79;94310.94;4857563;29;20228;-91
2022/08/29 12:05:28;;;;;;;9.98;4.00;;;;;;;26.69;47.99;94312.50;4847389;29;20269;-91
2022/08/29 12:08:31;;;;;;;5.05;4.13;;;;;;;26.90;47.90;94305.72;4868616;29;20240;-90
2022/08/29 12:11:17;;;;;;;5.82;3.90;;;;;;;26.17;49.70;94304.38;4851859;29;20699;-89
2022/08/29 12:14:02;;;;;;;5.22;4.07;;;;;;;27.62;44.65;94311.09;4848526;29;20590;-91
2022/08/29 12:16:50;;;;;;;6.78;3.55;;;;;;;28.54;41.82;94304.97;4846670;29;20295;-90
2022/08/29 12:19:49;;;;;;;4.00;3.13;;;;;;;28.61;42.30;94307.91;4847157;29;20212;-89
2022/08/29 12:22:55;;;;;;;4.00;3.40;;;;;;;27.38;44.13;94304.97;4869432;29;20231;-91
2022/08/29 12:25:59;;;;;;;5.95;3.70;;;;;;;28.04;44.19;94302.25;4855481;29;20213;-91
2022/08/29 12:28:56;;;;;;;11.23;4.13;;;;;;;28.77;45.13;94308.06;4860159;29;20217;-91
2022/08/29 12:31:59;;;;;;;17.52;4.38;;;;;;;28.67;43.26;94302.19;4870697;29;21058;-90
2022/08/29 12:35:02;;;;;;;8.02;4.20;;;;;;;28.65;43.84;94299.28;4857356;29;20701;-91
2022/08/29 12:38:23;;;;;;;7.85;3.63;;;;;;;28.04;42.99;94292.88;4848617;29;20312;-95
2022/08/29 12:41:55;;;;;;;9.07;3.70;;;;;;;26.57;46.47;94292.91;4859283;29;20258;-90
2022/08/29 12:44:46;;;;;;;6.10;3.55;;;;;;;26.72;43.97;94285.25;4867123;29;20684;-91
2022/08/29 12:47:34;;;;;;;3.25;2.80;;;;;;;27.34;45.50;94284.78;4854443;29;20204;-90
2022/08/29 12:50:23;;;;;;;4.95;3.15;;;;;;;27.86;42.20;94281.13;4859818;29;20229;-91
2022/08/29 12:53:29;;;;;;;6.10;3.50;;;;;;;28.19;40.44;94288.75;4847516;29;20311;-92
2022/08/29 12:56:20;;;;;;;4.70;3.53;;;;;;;27.84;44.69;94275.34;4859544;29;20213;-90
2022/08/29 12:59:06;;;;;;;5.05;3.15;;;;;;;27.10;45.94;94273.63;4870471;29;20213;-90
2022/08/29 13:01:52;;;;;;;5.22;3.20;;;;;;;27.11;42.95;94282.97;4853221;29;20655;-89
2022/08/29 13:04:42;;;;;;;5.07;3.47;;;;;;;26.65;44.29;94283.69;4836278;29;20636;-90
2022/08/29 13:07:28;;;;;;;5.20;3.65;;;;;;;26.42;45.73;94279.69;4866281;29;20215;-91
2022/08/29 13:10:17;;;;;;;6.78;3.70;;;;;;;26.01;46.77;94283.22;4844604;29;20236;-92
2022/08/29 13:13:14;;;;;;;7.25;3.70;;;;;;;26.14;46.36;94282.06;4865377;29;20219;-90
2022/08/29 13:16:00;;;;;;;4.28;3.88;;;;;;;27.54;44.76;94284.34;4842613;29;20228;-91
2022/08/29 13:18:44;;;;;;;4.65;4.13;;;;;;;28.10;45.13;94272.75;4854451;29;20366;-89
2022/08/29 13:21:31;;;;;;;8.18;3.55;;;;;;;28.18;42.69;94270.00;4847147;29;20273;-90
2022/08/29 13:24:19;;;;;;;4.38;3.33;;;;;;;28.14;42.08;94272.84;4854938;29;20214;-89
2022/08/29 13:27:05;;;;;;;4.07;3.50;;;;;;;27.23;44.53;94271.66;4833769;29;20240;-92
2022/08/29 13:29:59;;;;;;;8.00;4.07;;;;;;;26.41;44.82;94269.66;4845139;29;20216;-91
2022/08/29 13:32:48;;;;;;;5.18;3.40;;;;;;;26.25;45.77;94266.47;4865403;29;20221;-94
2022/08/29 13:35:34;;;;;;;4.65;4.22;;;;;;;26.31;46.78;94249.34;4846115;29;20236;-89
2022/08/29 13:38:23;;;;;;;5.53;4.22;;;;;;;27.83;44.36;94253.75;4860545;29;20578;-91
2022/08/29 13:41:07;;;;;;;8.80;4.22;;;;;;;28.32;43.18;94260.78;4860296;29;20288;-89
2022/08/29 13:43:52;;;;;;;5.68;4.43;;;;;;;27.10;46.68;94258.50;4855154;29;20223;-94
2022/08/29 13:46:36;;;;;;;6.22;4.55;;;;;;;26.89;46.27;94252.47;4863052;29;20208;-89
2022/08/29 13:49:23;;;;;;;10.77;4.22;;;;;;;26.88;45.58;94256.78;4838789;29;20204;-90
2022/08/29 13:52:11;;;;;;;5.60;4.30;;;;;;;26.57;45.99;94254.81;4864808;29;20221;-89
2022/08/29 13:54:56;;;;;;;8.30;4.25;;;;;;;26.41;46.66;94240.91;4857872;29;20731;-94
2022/08/29 13:57:42;;;;;;;7.80;4.40;;;;;;;27.07;46.79;94236.91;4858711;29;20670;-90
2022/08/29 14:00:27;;;;;;;7.47;5.03;;;;;;;27.40;44.77;94238.81;4858958;29;20236;-88
2022/08/29 14:03:15;;;;;;;5.35;4.45;;;;;;;27.10;43.87;94235.50;4857374;29;20236;-93
2022/08/29 14:06:00;;;;;;;8.52;3.67;;;;;;;27.48;43.06;94238.91;4870988;29;20212;-91
2022/08/29 14:08:45;;;;;;;7.55;3.95;;;;;;;27.54;44.36;94239.00;4875278;29;20231;-91
2022/08/29 14:11:32;;;;;;;4.30;3.90;;;;;;;27.88;42.63;94232.19;4860420;29;20307;-91
2022/08/29 14:14:17;;;;;;;6.78;4.25;;;;;;;27.69;42.24;94234.88;4834519;29;20655;-92
2022/08/29 14:17:02;;;;;;;5.85;4.43;;;;;;;26.88;46.79;94228.03;4858339;29;20228;-91
2022/08/29 14:19:46;;;;;;;8.70;5.47;;;;;;;26.73;46.56;94225.56;4852919;29;20216;-91
2022/08/29 14:22:30;;;;;;;4.53;4.13;;;;;;;27.29;45.88;94225.69;4841647;29;20208;-88
2022/08/29 14:25:17;;;;;;;12.88;4.57;;;;;;;27.85;44.08;94225.69;4851108;29;20220;-91
2022/08/29 14:28:02;;;;;;;11.65;5.13;;;;;;;27.70;45.28;94219.06;4858091;29;20219;-91
2022/08/29 14:30:47;;;;;;;7.05;4.82;;;;;;;27.50;44.58;94215.91;4848072;29;20260;-93
2022/08/29 14:33:31;;;;;;;4.55;4.15;;;;;;;27.09;44.46;94219.69;4851177;29;20224;-90
2022/08/29 14:36:16;;;;;;;6.00;4.00;;;;;;;26.90;43.81;94218.69;4872611;29;20205;-93
2022/08/29 14:39:00;;;;;;;4.93;4.35;;;;;;;27.23;45.05;94219.84;4852673;29;20304;-92
2022/08/29 14:41:45;;;;;;;4.60;4.05;;;;;;;27.63;43.98;94226.16;4865032;29;20201;-91
2022/08/29 14:44:29;;;;;;;8.00;3.70;;;;;;;28.17;42.33;94216.69;4876360;29;20246;-90
2022/08/29 14:47:13;;;;;;;6.25;4.13;;;;;;;27.71;44.56;94214.72;4856474;29;20717;-91
2022/08/29 14:49:58;;;;;;;5.60;4.38;;;;;;;27.90;43.85;94217.81;4861013;29;20263;-91
2022/08/29 14:52:43;;;;;;;7.43;4.05;;;;;;;27.93;44.63;94222.16;4862865;29;20213;-90
2022/08/29 14:55:28;;;;;;;11.60;4.50;;;;;;;27.90;44.85;94220.72;4862918;29;20224;-95
2022/08/29 14:58:13;;;;;;;7.90;4.63;;;;;;;27.44;45.82;94203.59;4848890;29;20310;-92
2022/08/29 15:00:57;;;;;;;11.88;5.25;;;;;;;27.16;45.55;94215.44;4875171;29;20641;-90
2022/08/29 15:03:41;;;;;;;5.00;4.38;;;;;;;26.75;46.01;94214.84;4860091;29;20705;-92
2022/08/29 15:06:25;;;;;;;8.65;4.38;;;;;;;26.34;47.33;94210.63;4838849;29;20213;-91
2022/08/29 15:09:09;;;;;;;4.75;4.10;;;;;;;26.84;45.11;94210.69;4855074;29;20228;-89
2022/08/29 15:11:54;;;;;;;7.57;5.28;;;;;;;27.08;45.24;94212.47;4854057;29;20225;-91
2022/08/29 15:14:40;;;;;;;6.82;4.35;;;;;;;27.48;44.85;94221.63;4861387;29;20216;-91
2022/08/29 15:17:24;;;;;;;4.20;3.38;;;;;;;27.24;44.39;94222.03;4878074;29;20232;-92
2022/08/29 15:20:12;;;;;;;6.72;4.35;;;;;;;26.83;44.27;94214.97;4856875;29;20222;-92
2022/08/29 15:22:58;;;;;;;5.72;3.75;;;;;;;27.21;44.81;94211.22;4877297;29;20228;-91
2022/08/29 15:25:42;;;;;;;4.32;3.92;;;;;;;27.52;44.01;94204.44;4874004;29;20212;-91
2022/08/29 15:28:27;;;;;;;4.70;4.20;;;;;;;27.13;45.52;94205.34;4884599;29;20274;-89
2022/08/29 15:31:13;;;;;;;6.60;4.20;;;;;;;26.99;43.61;94203.00;4866219;29;20240;-91
2022/08/29 15:33:57;;;;;;;9.45;4.72;;;;;;;27.23;44.56;94193.97;4878544;29;20224;-91
2022/08/29 15:36:41;;;;;;;4.95;4.35;;;;;;;27.21;45.10;94202.59;4863420;29;20675;-91
2022/08/29 15:39:26;;;;;;;7.30;4.47;;;;;;;27.02;45.59;94195.13;4867242;29;20247;-92
2022/08/29 15:42:11;;;;;;;7.68;4.85;;;;;;;27.38;45.25;94198.47;4879939;29;20292;-92
2022/08/29 15:44:58;;;;;;;4.60;4.20;;;;;;;27.32;45.41;94192.66;4877212;29;20248;-93
2022/08/29 15:47:42;;;;;;;4.70;4.18;;;;;;;27.50;43.29;94190.00;4858748;29;20358;-92
2022/08/29 15:50:27;;;;;;;7.95;4.15;;;;;;;27.70;44.81;94196.03;4861184;29;20235;-90
2022/08/29 15:53:11;;;;;;;7.57;4.15;;;;;;;27.28;43.91;94198.38;4862155;29;20210;-91
2022/08/29 15:55:56;;;;;;;4.53;4.10;;;;;;;27.41;45.18;94193.47;4859152;29;20535;-91
2022/08/29 15:58:42;;;;;;;4.60;3.83;;;;;;;26.96;45.20;94198.66;4863988;29;20209;-90
2022/08/29 16:01:26;;;;;;;9.00;4.93;;;;;;;27.14;46.23;94196.03;4850227;29;20628;-91
2022/08/29 16:04:12;;;;;;;7.03;4.35;;;;;;;27.11;44.71;94199.56;4859105;29;20219;-91
2022/08/29 16:06:58;;;;;;;7.90;4.57;;;;;;;27.23;44.62;94193.97;4869683;29;20203;-91
2022/08/29 16:09:43;;;;;;;5.28;4.30;;;;;;;27.08;46.55;94190.19;4858217;29;20277;-90
2022/08/29 16:12:28;;;;;;;6.38;4.45;;;;;;;26.89;45.62;94189.22;4864719;29;20213;-91
2022/08/29 16:15:14;;;;;;;5.20;3.90;;;;;;;27.19;45.14;94185.28;4861293;29;20216;-91
2022/08/29 16:18:01;;;;;;;4.38;3.90;;;;;;;27.18;43.44;94183.84;4848613;29;20232;-91
2022/08/29 16:20:45;;;;;;;4.60;4.20;;;;;;;26.87;45.51;94180.50;4841240;29;20209;-92
2022/08/29 16:23:30;;;;;;;9.52;4.50;;;;;;;26.72;45.92;94184.63;4867622;29;20282;-91
2022/08/29 16:26:18;;;;;;;6.00;4.55;;;;;;;26.30;47.68;94183.94;4868397;29;20209;-93
2022/08/29 16:29:07;;;;;;;5.57;4.72;;;;;;;26.67;46.28;94180.22;4852797;29;20216;-90
2022/08/29 16:31:57;;;;;;;8.57;5.07;;;;;;;26.66;47.17;94190.28;4862985;29;20691;-93
2022/08/29 16:34:41;;;;;;;7.50;4.22;;;;;;;26.43;48.77;94185.59;4864752;29;20208;-90
2022/08/29 16:37:27;;;;;;;4.60;4.20;;;;;;;26.55;47.57;94183.63;4864510;29;20209;-90
2022/08/29 16:40:13;;;;;;;6.20;4.90;;;;;;;26.26;47.98;94189.63;4838420;29;20292;-93
2022/08/29 16:43:00;;;;;;;6.97;5.60;;;;;;;26.31;49.10;94186.13;4847862;29;20698;-89
2022/08/29 16:45:45;;;;;;;6.68;4.95;;;;;;;26.05;48.49;94197.88;4844044;29;20276;-92
2022/08/29 16:48:29;;;;;;;8.45;5.55;;;;;;;26.17;48.99;94189.47;4868184;29;20220;-92
2022/08/29 16:51:14;;;;;;;6.95;5.00;;;;;;;25.87;48.63;94191.81;4862389;29;20243;-93
2022/08/29 16:53:58;;;;;;;7.90;5.30;;;;;;;25.86;49.30;94196.09;4846589;29;20217;-90
2022/08/29 16:56:43;;;;;;;8.18;5.60;;;;;;;25.47;50.35;94196.75;4846116;29;20267;-91
2022/08/29 16:59:27;;;;;;;5.55;5.05;;;;;;;25.58;50.67;94196.31;4833119;29;20292;-93
2022/08/29 17:02:11;;;;;;;7.82;5.45;;;;;;;25.35;51.26;94189.38;4844536;29;20212;-91
2022/08/29 17:04:55;;;;;;;6.97;5.40;;;;;;;25.14;52.25;94187.50;4867103;29;20227;-90
2022/08/29 17:18:51;;;;;;;5.88;5.28;;;;;;;24.86;53.26;94181.88;4869542;29;20209;-91
2022/08/29 17:21:36;;;;;;;9.57;5.95;;;;;;;24.53;55.40;94180.41;4859498;29;20677;-90
2022/08/29 17:24:21;;;;;;;10.00;6.18;;;;;;;24.25;56.04;94191.22;4873422;29;20208;-91
2022/08/29 17:27:06;;;;;;;8.57;5.85;;;;;;;24.32;56.14;94181.34;4873290;29;20648;-92
2022/08/29 17:29:49;;;;;;;8.63;6.80;;;;;;;24.23;56.44;94178.97;4874210;29;20276;-91
2022/08/29 17:32:34;;;;;;;8.15;7.07;;;;;;;23.97;56.86;94181.88;4847824;29;20206;-91
2022/08/29 17:35:17;;;;;;;8.85;7.25;;;;;;;23.89;57.12;94181.66;4860879;29;20211;-92
2022/08/29 17:38:02;;;;;;;7.22;6.40;;;;;;;23.89;57.47;94181.66;4863086;29;20217;-91
2022/08/29 17:40:47;;;;;;;8.50;6.18;;;;;;;23.56;58.25;94177.97;4858346;29;20229;-91
2022/08/29 17:43:35;;;;;;;8.07;5.10;;;;;;;23.58;57.82;94178.00;4863171;29;20232;-91
2022/08/29 17:46:20;;;;;;;9.20;6.00;;;;;;;23.41;58.93;94170.38;4853862;29;20284;-91
2022/08/29 17:49:09;;;;;;;8.00;6.50;;;;;;;23.23;59.40;94184.16;4859793;29;20671;-92
2022/08/29 17:51:53;;;;;;;7.30;6.70;;;;;;;23.18;59.36;94182.59;4859581;29;20233;-93
2022/08/29 17:54:37;;;;;;;9.18;6.70;;;;;;;22.97;58.85;94187.72;4850843;29;20675;-91
2022/08/29 17:57:24;;;;;;;8.00;7.20;;;;;;;22.83;60.41;94184.47;4852316;29;20647;-91
2022/08/29 18:00:09;;;;;;;8.32;7.03;;;;;;;22.23;62.50;94189.00;4847195;29;20303;-91
2022/08/29 18:02:57;;;;;;;12.00;7.20;;;;;;;22.26;62.64;94192.66;4831463;29;20210;-91
2022/08/29 18:05:41;;;;;;;10.82;7.57;;;;;;;22.46;62.37;94193.31;4859240;29;20252;-92
2022/08/29 18:08:28;;;;;;;9.43;8.45;;;;;;;22.24;61.96;94190.47;4869177;29;20276;-92
2022/08/29 18:11:12;;;;;;;11.77;8.70;;;;;;;22.06;63.09;94193.47;4844843;29;20266;-92
2022/08/29 18:13:57;;;;;;;9.15;8.10;;;;;;;22.05;63.37;94192.00;4856560;29;20213;-90
2022/08/29 18:16:41;;;;;;;9.00;8.13;;;;;;;22.00;63.47;94198.25;4847667;29;20221;-92
2022/08/29 18:19:26;;;;;;;11.25;8.48;;;;;;;21.94;64.43;94204.44;4860017;29;20277;-92
2022/08/29 18:22:10;;;;;;;9.30;8.18;;;;;;;21.87;64.46;94211.34;4859898;29;20288;-92
2022/08/29 18:24:56;;;;;;;11.63;8.73;;;;;;;21.56;65.67;94203.13;4864638;29;20263;-92
2022/08/29 18:27:41;;;;;;;9.52;8.63;;;;;;;21.58;65.41;94206.06;4876250;29;20212;-91
2022/08/29 18:30:26;;;;;;;10.27;9.10;;;;;;;21.37;65.90;94210.31;4841947;29;20702;-90
2022/08/29 18:33:11;;;;;;;17.13;8.85;;;;;;;21.19;66.21;94213.25;4860491;29;20205;-90
2022/08/29 18:35:56;;;;;;;10.60;9.45;;;;;;;21.17;67.16;94218.88;4858705;29;20239;-90
2022/08/29 18:38:41;;;;;;;14.77;8.60;;;;;;;21.07;68.28;94218.47;4849313;29;20209;-93
2022/08/29 18:41:25;;;;;;;9.25;8.38;;;;;;;21.06;67.73;94217.00;4858141;29;20205;-92
2022/08/29 18:44:10;;;;;;;11.70;9.32;;;;;;;20.88;68.59;94222.03;4834917;29;20210;-91
2022/08/29 18:46:56;;;;;;;9.63;8.73;;;;;;;20.97;67.83;94223.81;4860407;29;20204;-90
2022/08/29 18:52:44;;;;;;;10.82;9.25;;;;;;;20.95;67.83;94229.44;4867139;29;20209;-91
2022/08/29 18:55:29;;;;;;;19.23;9.80;;;;;;;20.83;68.07;94226.84;4859953;29;20244;-91
2022/08/29 18:58:15;;;;;;;10.48;9.27;;;;;;;20.85;68.23;94241.19;4835834;29;20212;-91
2022/08/29 19:01:19;;;;;;;11.23;9.80;;;;;;;20.79;68.66;94243.81;4857467;29;20201;-92
2022/08/29 19:04:03;;;;;;;15.07;9.40;;;;;;;20.76;68.68;94235.81;4859028;29;20292;-92
2022/08/29 19:06:47;;;;;;;9.98;8.98;;;;;;;20.64;69.62;94250.31;4847730;29;20209;-93
2022/08/29 19:09:32;;;;;;;11.05;9.38;;;;;;;20.46;70.12;94253.19;4861760;29;20300;-93
2022/08/29 19:12:16;;;;;;;12.30;10.18;;;;;;;20.41;70.67;94251.56;4868266;29;20243;-93
2022/08/29 19:15:01;;;;;;;10.40;9.50;;;;;;;20.31;70.54;94262.50;4867272;29;20226;-92